Terminal Aerodrome Forecast
Issued by NWS Paducah, KY

Home | Current Version | Previous Version | Text Only | Print | Product List | Glossary On
Versions: 1 2 3 4 5 6 7 8 9 10 11 12 13 14 15 16 17 18 19 20 21 22 23 24
000
FTUS43 KPAH 061133
TAFPAH
TAF
KPAH 061133Z 0612/0712 16003KT 2SM BR SCT005
      TEMPO 0612/0614 4SM BR BKN005
     FM061400 21004KT 6SM BR BKN025
     FM061700 22008KT P6SM SCT035
     FM070100 19006KT P6SM BKN250
     FM070800 21007KT 6SM BR OVC070=

USA.gov is the U.S. government's official web portal to all federal, state and local government web resources and services.